sensor_id;sensor_type;location;lat;lon;timestamp;P1;durP1;ratioP1;P2;durP2;ratioP2
66129;SDS011;52930;51.464;11.764;2022-11-20T00:02:09;22.03;;;7.77;;
66129;SDS011;52930;51.464;11.764;2022-11-20T00:04:34;21.10;;;7.85;;
66129;SDS011;52930;51.464;11.764;2022-11-20T00:07:00;22.77;;;9.18;;
66129;SDS011;52930;51.464;11.764;2022-11-20T00:09:25;25.13;;;7.87;;
66129;SDS011;52930;51.464;11.764;2022-11-20T00:11:50;24.50;;;8.90;;
66129;SDS011;52930;51.464;11.764;2022-11-20T00:14:16;20.60;;;8.17;;
66129;SDS011;52930;51.464;11.764;2022-11-20T00:16:41;24.70;;;8.63;;
66129;SDS011;52930;51.464;11.764;2022-11-20T00:19:07;25.80;;;8.97;;
66129;SDS011;52930;51.464;11.764;2022-11-20T00:21:32;26.75;;;8.25;;
66129;SDS011;52930;51.464;11.764;2022-11-20T00:23:57;27.95;;;9.45;;
66129;SDS011;52930;51.464;11.764;2022-11-20T00:26:24;21.87;;;8.10;;
66129;SDS011;52930;51.464;11.764;2022-11-20T00:28:51;22.40;;;8.60;;
66129;SDS011;52930;51.464;11.764;2022-11-20T00:31:21;23.95;;;8.88;;
66129;SDS011;52930;51.464;11.764;2022-11-20T00:33:46;20.77;;;7.97;;
66129;SDS011;52930;51.464;11.764;2022-11-20T00:36:16;19.27;;;7.95;;
66129;SDS011;52930;51.464;11.764;2022-11-20T00:38:43;24.02;;;8.90;;
66129;SDS011;52930;51.464;11.764;2022-11-20T00:41:10;24.43;;;9.37;;
66129;SDS011;52930;51.464;11.764;2022-11-20T00:43:37;25.48;;;8.27;;
66129;SDS011;52930;51.464;11.764;2022-11-20T00:48:29;26.47;;;9.63;;
66129;SDS011;52930;51.464;11.764;2022-11-20T00:50:55;24.23;;;8.45;;
66129;SDS011;52930;51.464;11.764;2022-11-20T00:53:21;22.63;;;8.20;;
66129;SDS011;52930;51.464;11.764;2022-11-20T00:55:57;21.93;;;8.57;;
66129;SDS011;52930;51.464;11.764;2022-11-20T00:58:24;22.02;;;8.43;;
66129;SDS011;52930;51.464;11.764;2022-11-20T01:00:50;23.15;;;8.85;;
66129;SDS011;52930;51.464;11.764;2022-11-20T01:03:17;20.13;;;7.57;;
66129;SDS011;52930;51.464;11.764;2022-11-20T01:05:43;18.83;;;7.15;;
66129;SDS011;52930;51.464;11.764;2022-11-20T01:08:08;24.35;;;7.60;;
66129;SDS011;52930;51.464;11.764;2022-11-20T01:10:34;24.00;;;9.33;;
66129;SDS011;52930;51.464;11.764;2022-11-20T01:12:59;23.63;;;9.20;;
66129;SDS011;52930;51.464;11.764;2022-11-20T01:15:43;25.30;;;9.23;;
66129;SDS011;52930;51.464;11.764;2022-11-20T01:18:08;25.20;;;8.97;;
66129;SDS011;52930;51.464;11.764;2022-11-20T01:20:34;21.07;;;8.10;;
66129;SDS011;52930;51.464;11.764;2022-11-20T01:23:01;19.33;;;7.55;;
66129;SDS011;52930;51.464;11.764;2022-11-20T01:25:26;25.05;;;8.52;;
66129;SDS011;52930;51.464;11.764;2022-11-20T01:27:52;22.07;;;9.00;;
66129;SDS011;52930;51.464;11.764;2022-11-20T01:30:17;27.43;;;9.53;;
66129;SDS011;52930;51.464;11.764;2022-11-20T01:32:43;27.27;;;9.00;;
66129;SDS011;52930;51.464;11.764;2022-11-20T01:35:08;25.93;;;9.10;;
66129;SDS011;52930;51.464;11.764;2022-11-20T01:37:34;23.88;;;8.98;;
66129;SDS011;52930;51.464;11.764;2022-11-20T01:40:00;24.73;;;8.77;;
66129;SDS011;52930;51.464;11.764;2022-11-20T01:42:25;26.70;;;9.47;;
66129;SDS011;52930;51.464;11.764;2022-11-20T01:48:08;25.33;;;9.32;;
66129;SDS011;52930;51.464;11.764;2022-11-20T01:50:34;27.33;;;8.83;;
66129;SDS011;52930;51.464;11.764;2022-11-20T01:53:06;25.02;;;9.40;;
66129;SDS011;52930;51.464;11.764;2022-11-20T01:55:39;27.20;;;9.57;;
66129;SDS011;52930;51.464;11.764;2022-11-20T01:58:10;25.98;;;9.05;;
66129;SDS011;52930;51.464;11.764;2022-11-20T02:00:36;24.10;;;9.38;;
66129;SDS011;52930;51.464;11.764;2022-11-20T02:03:12;23.97;;;9.30;;
66129;SDS011;52930;51.464;11.764;2022-11-20T02:05:45;29.92;;;9.70;;
66129;SDS011;52930;51.464;11.764;2022-11-20T02:08:13;25.25;;;9.25;;
66129;SDS011;52930;51.464;11.764;2022-11-20T02:10:39;24.30;;;9.57;;
66129;SDS011;52930;51.464;11.764;2022-11-20T02:13:04;26.80;;;9.65;;
66129;SDS011;52930;51.464;11.764;2022-11-20T02:15:49;22.20;;;8.87;;
66129;SDS011;52930;51.464;11.764;2022-11-20T02:18:15;23.92;;;9.13;;
66129;SDS011;52930;51.464;11.764;2022-11-20T02:20:42;22.58;;;8.15;;
66129;SDS011;52930;51.464;11.764;2022-11-20T02:25:38;29.63;;;9.77;;
66129;SDS011;52930;51.464;11.764;2022-11-20T02:28:04;17.92;;;7.32;;
66129;SDS011;52930;51.464;11.764;2022-11-20T02:30:30;15.68;;;6.18;;
66129;SDS011;52930;51.464;11.764;2022-11-20T02:32:55;20.43;;;7.63;;
66129;SDS011;52930;51.464;11.764;2022-11-20T02:37:47;23.90;;;8.10;;
66129;SDS011;52930;51.464;11.764;2022-11-20T02:40:14;21.05;;;8.30;;
66129;SDS011;52930;51.464;11.764;2022-11-20T02:42:39;22.60;;;7.90;;
66129;SDS011;52930;51.464;11.764;2022-11-20T02:45:05;23.52;;;8.07;;
66129;SDS011;52930;51.464;11.764;2022-11-20T02:47:31;26.83;;;9.95;;
66129;SDS011;52930;51.464;11.764;2022-11-20T02:49:56;22.07;;;7.50;;
66129;SDS011;52930;51.464;11.764;2022-11-20T02:52:22;21.70;;;9.25;;
66129;SDS011;52930;51.464;11.764;2022-11-20T02:54:47;25.60;;;9.20;;
66129;SDS011;52930;51.464;11.764;2022-11-20T02:57:13;21.60;;;8.70;;
66129;SDS011;52930;51.464;11.764;2022-11-20T02:59:38;26.73;;;9.30;;
66129;SDS011;52930;51.464;11.764;2022-11-20T03:02:03;23.13;;;9.00;;
66129;SDS011;52930;51.464;11.764;2022-11-20T03:04:29;24.42;;;8.80;;
66129;SDS011;52930;51.464;11.764;2022-11-20T03:06:55;28.07;;;9.33;;
66129;SDS011;52930;51.464;11.764;2022-11-20T03:09:20;22.05;;;8.77;;
66129;SDS011;52930;51.464;11.764;2022-11-20T03:11:46;23.95;;;8.30;;
66129;SDS011;52930;51.464;11.764;2022-11-20T03:14:11;26.10;;;9.43;;
66129;SDS011;52930;51.464;11.764;2022-11-20T03:16:37;24.73;;;9.60;;
66129;SDS011;52930;51.464;11.764;2022-11-20T03:19:02;21.65;;;8.32;;
66129;SDS011;52930;51.464;11.764;2022-11-20T03:21:28;23.60;;;8.15;;
66129;SDS011;52930;51.464;11.764;2022-11-20T03:23:53;24.00;;;8.80;;
66129;SDS011;52930;51.464;11.764;2022-11-20T03:26:20;21.92;;;8.10;;
66129;SDS011;52930;51.464;11.764;2022-11-20T03:28:49;23.40;;;8.70;;
66129;SDS011;52930;51.464;11.764;2022-11-20T03:31:16;22.88;;;8.57;;
66129;SDS011;52930;51.464;11.764;2022-11-20T03:33:43;19.85;;;7.57;;
66129;SDS011;52930;51.464;11.764;2022-11-20T03:36:09;24.53;;;9.17;;
66129;SDS011;52930;51.464;11.764;2022-11-20T03:38:36;24.95;;;9.20;;
66129;SDS011;52930;51.464;11.764;2022-11-20T03:41:06;24.73;;;8.77;;
66129;SDS011;52930;51.464;11.764;2022-11-20T03:43:33;20.15;;;8.55;;
66129;SDS011;52930;51.464;11.764;2022-11-20T03:45:59;21.00;;;8.55;;
66129;SDS011;52930;51.464;11.764;2022-11-20T03:48:24;27.63;;;9.40;;
66129;SDS011;52930;51.464;11.764;2022-11-20T03:50:50;25.50;;;10.23;;
66129;SDS011;52930;51.464;11.764;2022-11-20T03:53:16;22.80;;;8.68;;
66129;SDS011;52930;51.464;11.764;2022-11-20T03:55:42;22.33;;;8.73;;
66129;SDS011;52930;51.464;11.764;2022-11-20T03:58:08;22.08;;;9.57;;
66129;SDS011;52930;51.464;11.764;2022-11-20T04:00:33;28.27;;;10.53;;
66129;SDS011;52930;51.464;11.764;2022-11-20T04:02:59;27.63;;;9.90;;
66129;SDS011;52930;51.464;11.764;2022-11-20T04:05:25;25.65;;;9.88;;
66129;SDS011;52930;51.464;11.764;2022-11-20T04:07:51;24.17;;;9.67;;
66129;SDS011;52930;51.464;11.764;2022-11-20T04:10:16;26.23;;;10.13;;
66129;SDS011;52930;51.464;11.764;2022-11-20T04:12:41;26.20;;;10.38;;
66129;SDS011;52930;51.464;11.764;2022-11-20T04:15:07;25.93;;;10.30;;
66129;SDS011;52930;51.464;11.764;2022-11-20T04:17:33;26.73;;;9.83;;
66129;SDS011;52930;51.464;11.764;2022-11-20T04:19:58;26.63;;;10.20;;
66129;SDS011;52930;51.464;11.764;2022-11-20T04:22:23;26.10;;;8.68;;
66129;SDS011;52930;51.464;11.764;2022-11-20T04:24:49;26.87;;;10.50;;
66129;SDS011;52930;51.464;11.764;2022-11-20T04:27:14;27.67;;;10.27;;
66129;SDS011;52930;51.464;11.764;2022-11-20T04:29:39;27.70;;;10.27;;
66129;SDS011;52930;51.464;11.764;2022-11-20T04:32:05;24.08;;;8.52;;
66129;SDS011;52930;51.464;11.764;2022-11-20T04:34:31;25.88;;;9.65;;
66129;SDS011;52930;51.464;11.764;2022-11-20T04:36:56;31.50;;;10.50;;
66129;SDS011;52930;51.464;11.764;2022-11-20T04:39:21;27.23;;;10.10;;
66129;SDS011;52930;51.464;11.764;2022-11-20T04:41:47;26.53;;;9.83;;
66129;SDS011;52930;51.464;11.764;2022-11-20T04:44:12;19.20;;;7.93;;
66129;SDS011;52930;51.464;11.764;2022-11-20T04:46:38;24.67;;;10.30;;
66129;SDS011;52930;51.464;11.764;2022-11-20T04:49:05;27.38;;;10.38;;
66129;SDS011;52930;51.464;11.764;2022-11-20T04:51:32;28.60;;;10.80;;
66129;SDS011;52930;51.464;11.764;2022-11-20T04:53:58;26.33;;;10.60;;
66129;SDS011;52930;51.464;11.764;2022-11-20T04:56:23;28.23;;;9.60;;
66129;SDS011;52930;51.464;11.764;2022-11-20T04:58:48;31.63;;;10.50;;
66129;SDS011;52930;51.464;11.764;2022-11-20T05:01:15;29.00;;;11.00;;
66129;SDS011;52930;51.464;11.764;2022-11-20T05:03:42;26.30;;;9.98;;
66129;SDS011;52930;51.464;11.764;2022-11-20T05:06:09;26.65;;;10.55;;
66129;SDS011;52930;51.464;11.764;2022-11-20T05:08:36;22.63;;;10.35;;
66129;SDS011;52930;51.464;11.764;2022-11-20T05:11:02;30.47;;;10.73;;
66129;SDS011;52930;51.464;11.764;2022-11-20T05:13:29;27.63;;;10.32;;
66129;SDS011;52930;51.464;11.764;2022-11-20T05:15:55;27.13;;;10.13;;
66129;SDS011;52930;51.464;11.764;2022-11-20T05:18:20;19.73;;;8.00;;
66129;SDS011;52930;51.464;11.764;2022-11-20T05:20:45;21.63;;;7.73;;
66129;SDS011;52930;51.464;11.764;2022-11-20T05:23:11;26.10;;;9.40;;
66129;SDS011;52930;51.464;11.764;2022-11-20T05:25:36;26.87;;;10.47;;
66129;SDS011;52930;51.464;11.764;2022-11-20T05:28:01;21.87;;;7.53;;
66129;SDS011;52930;51.464;11.764;2022-11-20T05:30:27;24.05;;;9.25;;
66129;SDS011;52930;51.464;11.764;2022-11-20T05:32:52;25.47;;;9.40;;
66129;SDS011;52930;51.464;11.764;2022-11-20T05:35:17;28.30;;;10.33;;
66129;SDS011;52930;51.464;11.764;2022-11-20T05:37:43;22.93;;;9.43;;
66129;SDS011;52930;51.464;11.764;2022-11-20T05:40:08;26.30;;;9.67;;
66129;SDS011;52930;51.464;11.764;2022-11-20T05:42:34;26.95;;;9.48;;
66129;SDS011;52930;51.464;11.764;2022-11-20T05:45:01;26.93;;;9.37;;
66129;SDS011;52930;51.464;11.764;2022-11-20T05:47:30;24.77;;;9.20;;
66129;SDS011;52930;51.464;11.764;2022-11-20T05:49:57;22.30;;;8.48;;
66129;SDS011;52930;51.464;11.764;2022-11-20T05:52:23;24.77;;;9.47;;
66129;SDS011;52930;51.464;11.764;2022-11-20T05:54:48;22.80;;;8.63;;
66129;SDS011;52930;51.464;11.764;2022-11-20T05:57:14;16.60;;;6.03;;
66129;SDS011;52930;51.464;11.764;2022-11-20T05:59:39;26.53;;;9.87;;
66129;SDS011;52930;51.464;11.764;2022-11-20T06:02:05;27.00;;;10.37;;
66129;SDS011;52930;51.464;11.764;2022-11-20T06:04:30;22.20;;;8.93;;
66129;SDS011;52930;51.464;11.764;2022-11-20T06:06:55;26.60;;;9.70;;
66129;SDS011;52930;51.464;11.764;2022-11-20T06:09:21;32.60;;;9.93;;
66129;SDS011;52930;51.464;11.764;2022-11-20T06:11:46;25.63;;;9.80;;
66129;SDS011;52930;51.464;11.764;2022-11-20T06:14:11;22.13;;;7.57;;
66129;SDS011;52930;51.464;11.764;2022-11-20T06:16:37;28.93;;;10.57;;
66129;SDS011;52930;51.464;11.764;2022-11-20T06:19:02;22.13;;;7.67;;
66129;SDS011;52930;51.464;11.764;2022-11-20T06:21:28;16.63;;;6.40;;
66129;SDS011;52930;51.464;11.764;2022-11-20T06:23:53;26.00;;;9.27;;
66129;SDS011;52930;51.464;11.764;2022-11-20T06:26:20;19.50;;;7.15;;
66129;SDS011;52930;51.464;11.764;2022-11-20T06:28:47;14.37;;;5.37;;
66129;SDS011;52930;51.464;11.764;2022-11-20T06:31:13;26.02;;;8.57;;
66129;SDS011;52930;51.464;11.764;2022-11-20T06:33:39;28.57;;;9.53;;
66129;SDS011;52930;51.464;11.764;2022-11-20T06:36:05;23.90;;;8.98;;
66129;SDS011;52930;51.464;11.764;2022-11-20T06:38:31;29.03;;;9.77;;
66129;SDS011;52930;51.464;11.764;2022-11-20T06:40:56;21.92;;;8.02;;
66129;SDS011;52930;51.464;11.764;2022-11-20T06:43:22;25.30;;;9.53;;
66129;SDS011;52930;51.464;11.764;2022-11-20T06:45:55;24.27;;;9.73;;
66129;SDS011;52930;51.464;11.764;2022-11-20T06:48:22;22.73;;;9.15;;
66129;SDS011;52930;51.464;11.764;2022-11-20T06:50:48;27.67;;;9.67;;
66129;SDS011;52930;51.464;11.764;2022-11-20T06:53:13;29.60;;;9.95;;
66129;SDS011;52930;51.464;11.764;2022-11-20T06:55:42;20.50;;;6.93;;
66129;SDS011;52930;51.464;11.764;2022-11-20T06:58:08;22.25;;;8.80;;
66129;SDS011;52930;51.464;11.764;2022-11-20T07:00:34;19.63;;;6.50;;
66129;SDS011;52930;51.464;11.764;2022-11-20T07:03:02;23.13;;;8.53;;
66129;SDS011;52930;51.464;11.764;2022-11-20T07:05:28;19.00;;;7.25;;
66129;SDS011;52930;51.464;11.764;2022-11-20T07:07:55;26.93;;;10.53;;
66129;SDS011;52930;51.464;11.764;2022-11-20T07:10:21;30.42;;;9.93;;
66129;SDS011;52930;51.464;11.764;2022-11-20T07:12:50;22.13;;;8.03;;
66129;SDS011;52930;51.464;11.764;2022-11-20T07:15:16;29.10;;;10.90;;
66129;SDS011;52930;51.464;11.764;2022-11-20T07:17:42;30.95;;;12.13;;
66129;SDS011;52930;51.464;11.764;2022-11-20T07:20:07;32.03;;;11.10;;
66129;SDS011;52930;51.464;11.764;2022-11-20T07:22:33;30.57;;;10.97;;
66129;SDS011;52930;51.464;11.764;2022-11-20T07:24:58;27.27;;;10.00;;
66129;SDS011;52930;51.464;11.764;2022-11-20T07:27:23;27.20;;;10.95;;
66129;SDS011;52930;51.464;11.764;2022-11-20T07:29:49;29.20;;;9.55;;
66129;SDS011;52930;51.464;11.764;2022-11-20T07:32:15;16.13;;;5.33;;
66129;SDS011;52930;51.464;11.764;2022-11-20T07:34:40;36.57;;;11.63;;
66129;SDS011;52930;51.464;11.764;2022-11-20T07:37:05;21.08;;;7.40;;
66129;SDS011;52930;51.464;11.764;2022-11-20T07:39:31;27.80;;;9.47;;
66129;SDS011;52930;51.464;11.764;2022-11-20T07:41:56;20.20;;;7.30;;
66129;SDS011;52930;51.464;11.764;2022-11-20T07:44:22;27.63;;;9.83;;
66129;SDS011;52930;51.464;11.764;2022-11-20T07:46:47;24.27;;;7.97;;
66129;SDS011;52930;51.464;11.764;2022-11-20T07:49:12;23.43;;;8.57;;
66129;SDS011;52930;51.464;11.764;2022-11-20T07:51:38;28.40;;;9.93;;
66129;SDS011;52930;51.464;11.764;2022-11-20T07:54:03;18.50;;;7.50;;
66129;SDS011;52930;51.464;11.764;2022-11-20T07:56:28;28.08;;;9.43;;
66129;SDS011;52930;51.464;11.764;2022-11-20T07:58:54;20.00;;;5.83;;
66129;SDS011;52930;51.464;11.764;2022-11-20T08:01:20;22.00;;;8.77;;
66129;SDS011;52930;51.464;11.764;2022-11-20T08:03:45;18.30;;;6.80;;
66129;SDS011;52930;51.464;11.764;2022-11-20T08:06:10;30.65;;;9.75;;
66129;SDS011;52930;51.464;11.764;2022-11-20T08:08:36;21.83;;;5.33;;
66129;SDS011;52930;51.464;11.764;2022-11-20T08:11:01;23.17;;;7.93;;
66129;SDS011;52930;51.464;11.764;2022-11-20T08:13:45;22.02;;;7.30;;
66129;SDS011;52930;51.464;11.764;2022-11-20T08:16:29;29.05;;;8.45;;
66129;SDS011;52930;51.464;11.764;2022-11-20T08:18:54;23.30;;;6.40;;
66129;SDS011;52930;51.464;11.764;2022-11-20T08:21:20;17.83;;;6.07;;
66129;SDS011;52930;51.464;11.764;2022-11-20T08:23:45;19.03;;;6.57;;
66129;SDS011;52930;51.464;11.764;2022-11-20T08:26:11;19.53;;;7.47;;
66129;SDS011;52930;51.464;11.764;2022-11-20T08:28:36;22.15;;;7.35;;
66129;SDS011;52930;51.464;11.764;2022-11-20T08:31:02;17.87;;;6.10;;
66129;SDS011;52930;51.464;11.764;2022-11-20T08:33:28;16.33;;;5.88;;
66129;SDS011;52930;51.464;11.764;2022-11-20T08:35:58;25.50;;;8.67;;
66129;SDS011;52930;51.464;11.764;2022-11-20T08:38:25;20.27;;;6.88;;
66129;SDS011;52930;51.464;11.764;2022-11-20T08:40:50;24.90;;;8.17;;
66129;SDS011;52930;51.464;11.764;2022-11-20T08:43:34;23.50;;;8.60;;
66129;SDS011;52930;51.464;11.764;2022-11-20T08:46:00;20.70;;;6.30;;
66129;SDS011;52930;51.464;11.764;2022-11-20T08:48:25;20.07;;;6.40;;
66129;SDS011;52930;51.464;11.764;2022-11-20T08:50:51;22.17;;;7.03;;
66129;SDS011;52930;51.464;11.764;2022-11-20T08:53:16;21.15;;;7.15;;
66129;SDS011;52930;51.464;11.764;2022-11-20T08:55:41;20.40;;;8.30;;
66129;SDS011;52930;51.464;11.764;2022-11-20T08:58:07;22.93;;;8.17;;
66129;SDS011;52930;51.464;11.764;2022-11-20T09:00:32;18.33;;;7.53;;
66129;SDS011;52930;51.464;11.764;2022-11-20T09:02:58;21.88;;;7.18;;
66129;SDS011;52930;51.464;11.764;2022-11-20T09:05:25;27.10;;;7.72;;
66129;SDS011;52930;51.464;11.764;2022-11-20T09:07:51;16.60;;;5.47;;
66129;SDS011;52930;51.464;11.764;2022-11-20T09:10:16;22.60;;;8.30;;
66129;SDS011;52930;51.464;11.764;2022-11-20T09:12:42;25.60;;;8.70;;
66129;SDS011;52930;51.464;11.764;2022-11-20T09:15:07;27.10;;;7.40;;
66129;SDS011;52930;51.464;11.764;2022-11-20T09:17:33;27.52;;;9.50;;
66129;SDS011;52930;51.464;11.764;2022-11-20T09:19:58;24.47;;;9.33;;
66129;SDS011;52930;51.464;11.764;2022-11-20T09:22:23;26.30;;;9.07;;
66129;SDS011;52930;51.464;11.764;2022-11-20T09:24:49;13.33;;;4.53;;
66129;SDS011;52930;51.464;11.764;2022-11-20T09:27:14;13.03;;;5.10;;
66129;SDS011;52930;51.464;11.764;2022-11-20T09:29:44;24.55;;;9.00;;
66129;SDS011;52930;51.464;11.764;2022-11-20T09:32:09;25.50;;;9.07;;
66129;SDS011;52930;51.464;11.764;2022-11-20T09:34:35;22.40;;;8.20;;
66129;SDS011;52930;51.464;11.764;2022-11-20T09:37:00;27.03;;;10.50;;
66129;SDS011;52930;51.464;11.764;2022-11-20T09:39:25;16.70;;;6.07;;
66129;SDS011;52930;51.464;11.764;2022-11-20T09:47:35;25.93;;;9.60;;
66129;SDS011;52930;51.464;11.764;2022-11-20T09:50:36;23.42;;;6.95;;
66129;SDS011;52930;51.464;11.764;2022-11-20T09:53:13;16.95;;;5.90;;
66129;SDS011;52930;51.464;11.764;2022-11-20T09:55:44;22.60;;;8.02;;
66129;SDS011;52930;51.464;11.764;2022-11-20T09:58:14;19.65;;;6.10;;
66129;SDS011;52930;51.464;11.764;2022-11-20T10:00:45;13.83;;;5.83;;
66129;SDS011;52930;51.464;11.764;2022-11-20T10:05:51;14.50;;;5.40;;
66129;SDS011;52930;51.464;11.764;2022-11-20T10:08:22;18.17;;;6.07;;
66129;SDS011;52930;51.464;11.764;2022-11-20T10:10:49;17.55;;;6.18;;
66129;SDS011;52930;51.464;11.764;2022-11-20T10:16:19;27.37;;;9.00;;
66129;SDS011;52930;51.464;11.764;2022-11-20T10:21:26;20.73;;;6.70;;
66129;SDS011;52930;51.464;11.764;2022-11-20T10:24:04;19.92;;;6.72;;
66129;SDS011;52930;51.464;11.764;2022-11-20T10:29:32;19.13;;;6.40;;
66129;SDS011;52930;51.464;11.764;2022-11-20T10:32:18;15.75;;;5.35;;
66129;SDS011;52930;51.464;11.764;2022-11-20T10:37:19;13.82;;;5.43;;
66129;SDS011;52930;51.464;11.764;2022-11-20T10:39:58;18.73;;;6.78;;
66129;SDS011;52930;51.464;11.764;2022-11-20T10:42:45;13.40;;;5.03;;
66129;SDS011;52930;51.464;11.764;2022-11-20T11:01:44;17.98;;;5.90;;
66129;SDS011;52930;51.464;11.764;2022-11-20T11:06:54;17.13;;;6.00;;
66129;SDS011;52930;51.464;11.764;2022-11-20T11:09:27;17.58;;;5.97;;
66129;SDS011;52930;51.464;11.764;2022-11-20T11:11:57;16.80;;;6.00;;
66129;SDS011;52930;51.464;11.764;2022-11-20T11:14:23;16.43;;;5.70;;
66129;SDS011;52930;51.464;11.764;2022-11-20T11:19:15;17.52;;;6.03;;
66129;SDS011;52930;51.464;11.764;2022-11-20T11:21:48;12.57;;;4.32;;
66129;SDS011;52930;51.464;11.764;2022-11-20T11:24:19;13.87;;;4.97;;
66129;SDS011;52930;51.464;11.764;2022-11-20T11:27:00;20.40;;;7.53;;
66129;SDS011;52930;51.464;11.764;2022-11-20T11:29:29;22.77;;;7.30;;
66129;SDS011;52930;51.464;11.764;2022-11-20T11:32:29;19.90;;;6.85;;
66129;SDS011;52930;51.464;11.764;2022-11-20T11:35:04;13.85;;;4.95;;
66129;SDS011;52930;51.464;11.764;2022-11-20T11:37:34;10.87;;;4.00;;
66129;SDS011;52930;51.464;11.764;2022-11-20T11:40:02;18.30;;;6.22;;
66129;SDS011;52930;51.464;11.764;2022-11-20T11:42:29;18.92;;;6.35;;
66129;SDS011;52930;51.464;11.764;2022-11-20T11:44:55;21.02;;;7.90;;
66129;SDS011;52930;51.464;11.764;2022-11-20T11:52:35;13.57;;;4.55;;
66129;SDS011;52930;51.464;11.764;2022-11-20T11:55:03;22.30;;;7.18;;
66129;SDS011;52930;51.464;11.764;2022-11-20T12:00:18;19.65;;;7.78;;
66129;SDS011;52930;51.464;11.764;2022-11-20T12:07:59;21.65;;;8.02;;
66129;SDS011;52930;51.464;11.764;2022-11-20T12:16:14;24.30;;;8.33;;
66129;SDS011;52930;51.464;11.764;2022-11-20T12:18:40;24.10;;;8.18;;
66129;SDS011;52930;51.464;11.764;2022-11-20T12:24:04;21.92;;;8.90;;
66129;SDS011;52930;51.464;11.764;2022-11-20T12:29:44;23.93;;;8.43;;
66129;SDS011;52930;51.464;11.764;2022-11-20T12:42:51;18.42;;;7.03;;
66129;SDS011;52930;51.464;11.764;2022-11-20T12:45:46;26.00;;;8.27;;
66129;SDS011;52930;51.464;11.764;2022-11-20T13:06:46;18.42;;;7.80;;
66129;SDS011;52930;51.464;11.764;2022-11-20T13:09:13;21.30;;;7.53;;
66129;SDS011;52930;51.464;11.764;2022-11-20T13:12:01;39.58;;;12.70;;
66129;SDS011;52930;51.464;11.764;2022-11-20T13:19:47;20.05;;;7.60;;
66129;SDS011;52930;51.464;11.764;2022-11-20T13:22:27;21.97;;;7.47;;
66129;SDS011;52930;51.464;11.764;2022-11-20T13:25:31;20.63;;;7.50;;
66129;SDS011;52930;51.464;11.764;2022-11-20T13:27:59;26.17;;;11.05;;
66129;SDS011;52930;51.464;11.764;2022-11-20T13:30:26;25.35;;;11.13;;
66129;SDS011;52930;51.464;11.764;2022-11-20T13:35:31;21.67;;;7.50;;
66129;SDS011;52930;51.464;11.764;2022-11-20T13:38:09;23.10;;;8.02;;
66129;SDS011;52930;51.464;11.764;2022-11-20T13:40:56;19.60;;;7.18;;
66129;SDS011;52930;51.464;11.764;2022-11-20T13:46:00;18.90;;;6.88;;
66129;SDS011;52930;51.464;11.764;2022-11-20T13:48:30;19.23;;;7.90;;
66129;SDS011;52930;51.464;11.764;2022-11-20T13:56:54;17.70;;;6.50;;
66129;SDS011;52930;51.464;11.764;2022-11-20T14:01:56;17.73;;;5.97;;
66129;SDS011;52930;51.464;11.764;2022-11-20T14:04:33;18.23;;;6.68;;
66129;SDS011;52930;51.464;11.764;2022-11-20T14:06:58;19.03;;;6.47;;
66129;SDS011;52930;51.464;11.764;2022-11-20T14:09:25;16.10;;;6.43;;
66129;SDS011;52930;51.464;11.764;2022-11-20T14:11:54;8.47;;;3.57;;
66129;SDS011;52930;51.464;11.764;2022-11-20T14:14:21;14.75;;;5.13;;
66129;SDS011;52930;51.464;11.764;2022-11-20T14:16:51;14.43;;;4.83;;
66129;SDS011;52930;51.464;11.764;2022-11-20T14:21:49;17.98;;;5.50;;
66129;SDS011;52930;51.464;11.764;2022-11-20T14:24:20;14.80;;;5.88;;
66129;SDS011;52930;51.464;11.764;2022-11-20T14:26:46;15.32;;;5.53;;
66129;SDS011;52930;51.464;11.764;2022-11-20T14:29:21;13.53;;;5.07;;
66129;SDS011;52930;51.464;11.764;2022-11-20T14:31:52;17.85;;;6.50;;
66129;SDS011;52930;51.464;11.764;2022-11-20T14:34:19;16.52;;;5.03;;
66129;SDS011;52930;51.464;11.764;2022-11-20T14:36:46;17.75;;;5.80;;
66129;SDS011;52930;51.464;11.764;2022-11-20T14:39:12;17.27;;;6.70;;
66129;SDS011;52930;51.464;11.764;2022-11-20T14:41:50;15.67;;;6.40;;
66129;SDS011;52930;51.464;11.764;2022-11-20T14:44:16;12.98;;;4.72;;
66129;SDS011;52930;51.464;11.764;2022-11-20T14:46:41;13.85;;;4.80;;
66129;SDS011;52930;51.464;11.764;2022-11-20T14:49:08;15.10;;;5.18;;
66129;SDS011;52930;51.464;11.764;2022-11-20T14:56:36;17.40;;;6.28;;
66129;SDS011;52930;51.464;11.764;2022-11-20T14:59:02;18.80;;;7.05;;
66129;SDS011;52930;51.464;11.764;2022-11-20T15:01:28;19.97;;;6.67;;
66129;SDS011;52930;51.464;11.764;2022-11-20T15:04:08;16.38;;;5.40;;
66129;SDS011;52930;51.464;11.764;2022-11-20T15:06:35;16.60;;;5.83;;
66129;SDS011;52930;51.464;11.764;2022-11-20T15:09:02;16.20;;;5.70;;
66129;SDS011;52930;51.464;11.764;2022-11-20T15:11:30;16.48;;;6.07;;
66129;SDS011;52930;51.464;11.764;2022-11-20T15:13:56;15.93;;;5.65;;
66129;SDS011;52930;51.464;11.764;2022-11-20T15:16:22;18.40;;;6.37;;
66129;SDS011;52930;51.464;11.764;2022-11-20T15:18:49;17.38;;;5.70;;
66129;SDS011;52930;51.464;11.764;2022-11-20T15:21:15;15.30;;;5.65;;
66129;SDS011;52930;51.464;11.764;2022-11-20T15:23:42;16.20;;;6.03;;
66129;SDS011;52930;51.464;11.764;2022-11-20T15:26:09;21.13;;;6.20;;
66129;SDS011;52930;51.464;11.764;2022-11-20T15:28:37;18.02;;;6.25;;
66129;SDS011;52930;51.464;11.764;2022-11-20T15:31:05;16.48;;;6.35;;
66129;SDS011;52930;51.464;11.764;2022-11-20T15:33:31;18.47;;;6.50;;
66129;SDS011;52930;51.464;11.764;2022-11-20T15:35:57;17.73;;;6.07;;
66129;SDS011;52930;51.464;11.764;2022-11-20T15:38:23;16.80;;;6.63;;
66129;SDS011;52930;51.464;11.764;2022-11-20T15:40:48;15.77;;;5.70;;
66129;SDS011;52930;51.464;11.764;2022-11-20T15:43:13;19.27;;;6.97;;
66129;SDS011;52930;51.464;11.764;2022-11-20T15:45:46;18.75;;;6.93;;
66129;SDS011;52930;51.464;11.764;2022-11-20T15:50:52;22.17;;;7.00;;
66129;SDS011;52930;51.464;11.764;2022-11-20T15:53:17;16.45;;;6.10;;
66129;SDS011;52930;51.464;11.764;2022-11-20T15:55:43;17.57;;;6.53;;
66129;SDS011;52930;51.464;11.764;2022-11-20T15:58:08;19.27;;;6.70;;
66129;SDS011;52930;51.464;11.764;2022-11-20T16:00:34;19.57;;;6.40;;
66129;SDS011;52930;51.464;11.764;2022-11-20T16:02:59;20.77;;;7.13;;
66129;SDS011;52930;51.464;11.764;2022-11-20T16:05:27;17.47;;;6.60;;
66129;SDS011;52930;51.464;11.764;2022-11-20T16:07:53;17.35;;;6.70;;
66129;SDS011;52930;51.464;11.764;2022-11-20T16:10:19;18.73;;;6.03;;
66129;SDS011;52930;51.464;11.764;2022-11-20T16:12:44;16.53;;;6.13;;
66129;SDS011;52930;51.464;11.764;2022-11-20T16:15:28;22.50;;;7.13;;
66129;SDS011;52930;51.464;11.764;2022-11-20T16:18:13;20.85;;;6.88;;
66129;SDS011;52930;51.464;11.764;2022-11-20T16:20:40;18.90;;;6.22;;
66129;SDS011;52930;51.464;11.764;2022-11-20T16:23:06;18.67;;;7.10;;
66129;SDS011;52930;51.464;11.764;2022-11-20T16:25:32;21.70;;;8.17;;
66129;SDS011;52930;51.464;11.764;2022-11-20T16:27:57;18.70;;;7.47;;
66129;SDS011;52930;51.464;11.764;2022-11-20T16:30:23;21.47;;;7.50;;
66129;SDS011;52930;51.464;11.764;2022-11-20T16:32:48;22.03;;;7.43;;
66129;SDS011;52930;51.464;11.764;2022-11-20T16:35:13;23.90;;;7.77;;
66129;SDS011;52930;51.464;11.764;2022-11-20T16:37:39;16.05;;;6.13;;
66129;SDS011;52930;51.464;11.764;2022-11-20T16:40:05;17.47;;;6.40;;